• Join FlightAware (Why Join?)
  • Login
  • US Flag 
08:45PM EST


 

Airport Tracker/Info


-or-


 

Live Flight TrackerFlight Track Log ✈ N775NC ✈ 14-Oct-2013 ✈ KATL - KCLT

Flight Track Log - Related Links

Times and Time Zones

All times are in EDT time to prevent confusion due to time zone crossing. See the N775NC flight status page for this flight to view local times or setup timezone preferences in your user account.

Time Position Orientation Groundspeed Altitude Reporting Facility
EDT Latitude Longitude Course Direction KTS MPH feet Rate Location/Type
08:02AM 33.6333 -84.4000 90° East 158 182 2,600  Level Atlanta TRACON
08:03AM 33.6000 -84.3167 116° Southeast 262 302 4,600 2,100 Climbing Atlanta TRACON
08:04AM 33.5833 -84.2333 103° East 279 321 6,900 2,160 Climbing Atlanta TRACON
08:06AM 33.8192 -84.0425 65° Northeast  Level Estimated
08:06AM 33.5856 -84.0711 89° East 284 327 10,600  Level Atlanta Center
08:07AM 33.8192 -83.9315 90° East  Level FlightAware Approximate
08:07AM 33.5897 -83.9614 87° East 307 353 11,600  Level Atlanta Center
08:08AM 33.8191 -83.8205 90° East  Level FlightAware Approximate
08:08AM 33.5917 -83.8442 89° East 342 394 13,900  Level Atlanta Center
08:09AM 33.6081 -83.7244 81° East 353 406 15,900 1,980 Climbing Atlanta Center
08:10AM 33.6558 -83.6169 62° Northeast 353 406 17,900 1,500 Climbing Atlanta Center
08:11AM 33.7139 -83.5094 57° Northeast 364 419 18,900 1,200 Climbing Atlanta Center
08:12AM 33.7675 -83.3917 61° Northeast 388 447 20,300 1,800 Climbing Atlanta Center
08:13AM 33.8211 -83.2736 61° Northeast 400 460 22,500 2,100 Climbing Atlanta Center
08:14AM 33.8747 -83.1656 59° Northeast 394 453 24,600 1,200 Climbing Atlanta Center
08:15AM 33.8883 -83.0428 82° East 364 419 25,000 -60 Climbing Atlanta Center
08:16AM 33.8392 -82.9233 116° Southeast 351 404 24,500 -540 Descending Atlanta Center
08:17AM 33.7942 -82.8014 114° Southeast 375 432 24,000 -300 Descending Atlanta Center
08:18AM 33.8244 -82.7036 70° East 355 409 24,000  Level Atlanta Center
08:19AM 33.8967 -82.6222 43° Northeast 322 371 24,000  Level Atlanta Center
08:20AM 33.9583 -82.5311 51° Northeast 342 394 24,000  Level Atlanta Center
08:21AM 34.0217 -82.4372 51° Northeast 352 405 24,000  Level Atlanta Center
08:22AM 34.0936 -82.3456 47° Northeast 364 419 24,000  Level Atlanta Center
08:23AM 34.1842 -82.2533 40° Northeast 377 434 24,000 -60 Level Atlanta Center
08:24AM 34.2578 -82.1614 46° Northeast 382 440 23,900 -1,200 Descending Atlanta Center
08:25AM 34.3358 -82.0742 43° Northeast 382 440 21,600 -2,700 Descending Atlanta Center
08:26AM 34.4033 -81.9869 47° Northeast 363 418 18,500 -2,880 Descending Atlanta Center
08:27AM 34.4706 -81.8997 47° Northeast 352 405 15,900 -2,700 Descending Atlanta Center
08:28AM 34.5383 -81.8297 40° Northeast 334 384 13,100 -2,280 Descending Atlanta Center
08:29AM 34.6058 -81.7575 41° Northeast 328 377 11,400 -1,260 Descending Atlanta Center
08:30AM 34.6364 -81.7186 46° Northeast 296 341 11,200 -420 Descending Atlanta Center
08:30AM 34.6631 -81.6903 41° Northeast 307 353 11,000 -180 Descending Atlanta Center
08:31AM 34.7175 -81.6028 53° Northeast 274 315 11,000  Level Atlanta Center
08:32AM 34.7558 -81.5383 54° Northeast 275 316 11,000  Level Atlanta Center
08:32AM 34.7600 -81.5306 57° Northeast 288 331 11,000  Level Atlanta Center
08:33AM 34.7664 -81.4419 85° East 276 318 11,000  Level Atlanta Center
08:33AM 34.7639 -81.4167 97° East 291 335 11,000 -300 Level Atlanta Center
08:34AM 34.7603 -81.3461 94° East 276 318 10,700 -600 Descending Atlanta Center
08:34AM 34.7597 -81.3233 92° East 287 330 10,400 -1,020 Descending Atlanta Center
08:35AM 34.7539 -81.2528 96° East 276 318 9,700 -1,020 Descending Atlanta Center
08:35AM 34.7536 -81.2350 91° East 279 321 9,500 -660 Descending Atlanta Center
08:36AM 34.7450 -81.1419 96° East 279 321 9,000 -660 Descending Atlanta Center
08:37AM 34.7392 -81.0636 95° East 276 318 8,300 -840 Descending Atlanta Center
08:37AM 34.7364 -81.0411 99° East 283 326 8,100 -300 Descending Atlanta Center
08:38AM 34.7325 -80.9706 94° East 276 318 8,000 -120 Descending Atlanta Center
08:39AM 34.7361 -80.9400 82° East 269 310 8,000  Level Atlanta Center
08:39AM 34.7644 -80.9111 40° Northeast 240 276 8,000  Level Atlanta Center
08:40AM 34.7958 -80.9150 354° North 251 289 8,000 -240 Level Atlanta Center
08:41AM 34.8483 -80.9256 351° North 171 197 7,700 -660 Descending Atlanta Center
08:42AM 34.8986 -80.9289 357° North 173 199 6,700 -1,020 Descending Atlanta Center
08:43AM 34.9467 -80.9322 357° North 174 200 5,700 -1,020 Descending Atlanta Center
08:44AM 34.9969 -80.9378 355° North 174 200 4,700 -1,020 Descending Atlanta Center
08:45AM 35.0469 -80.9411 357° North 180 207 3,700 -960 Descending Atlanta Center
08:46AM 35.0950 -80.9469 354° North 173 199 2,800 -900 Descending Atlanta Center
08:47AM 35.1369 -80.9478 359° North 161 185 2,000 -840 Descending Atlanta Center
08:48AM 35.1703 -80.9517 355° North 124 143 1,300 -720 Descending Atlanta Center